Hauptseite
METAR-TAF:

METAR-TAF

Flughäfen :

Fliegerhorst Faßberg

Faßberg, Deutschland

Breite: 52-55N, Länge: 010-11E, Höhe: 75 m

Beobachtung

Neuester Wetterbericht von vor 19 Minuten, um 13:20 UTC
Wind 6 kt aus Nordwest
Temperatur 29°C
Luftfeuchtigkeit 29%
Luftdruck 1012 hPa
Sichtweite 10 km oder mehr
Aufgelockert bewölkt in der Höhe von 7000 ft
Durchbrochene Bewölkung in der Höhe von 34000 ft

METAR: ETHS 171320Z 32006KT 9999 SCT070 BKN340 29/09 Q1012 BLU+BLU+

Zeit: 15:39 (13:39 UTC)

Prognose

Neuester Wetterbericht von vor 3 Stunden und 17 Minuten, um 10:22 UTC
Gültige Prognose vom 17 um 11 UTC bis 17 um 20 UTC
Wind 8 kt aus Nordwest
Sichtweite 10 km oder mehr
Leicht bewölkt in der Höhe von 6000 ft
Aufgelockert bewölkt in der Höhe von 30000 ft

TAF: ETHS 171022Z 1711/1720 31008KT 9999 NSW FEW060 SCT300

Wetterbeobachtungen und Prognosen von mehr als 4000 Flughäfen (METAR und TAF Bericht).

Die verfügbaren Stationen werden durch gelbe und rote Markierungen auf der Karte dargestellt.

Führen Sie die Maus auf sie, um den Namen der Station zu sehen.

Darauf klicken, um die Beobachtung von Wetterbeobachtungen und Prognosen zu sehen.

Um die Karte zu ändern : klicken Sie auf den grünen Tasten mit einem schwarzen Kreuz Zum Vergrößern, auf den grünen Button mit einem Gedankenstrich zu verkleinern, oder auf die grünen Pfeile für benachbarte Karten.


METAR-TAF: